createdAt,value
2022-11-30T00:01:10.096Z,52.73
2022-11-30T00:03:36.698Z,50.40
2022-11-30T00:06:08.524Z,53.03
2022-11-30T00:08:35.254Z,53.57
2022-11-30T00:11:08.234Z,51.10
2022-11-30T00:13:34.804Z,56.07
2022-11-30T00:16:01.659Z,49.63
2022-11-30T00:18:28.237Z,49.53
2022-11-30T00:20:55.386Z,54.03
2022-11-30T00:23:21.916Z,50.60
2022-11-30T00:25:48.459Z,51.90
2022-11-30T00:28:15.040Z,53.80
2022-11-30T00:30:41.730Z,50.93
2022-11-30T00:33:08.308Z,50.20
2022-11-30T00:35:34.833Z,55.67
2022-11-30T00:38:03.074Z,50.80
2022-11-30T00:40:29.671Z,53.10
2022-11-30T00:42:56.441Z,52.93
2022-11-30T00:45:22.971Z,50.47
2022-11-30T00:47:49.554Z,51.33
2022-11-30T00:50:16.166Z,53.93
2022-11-30T00:52:42.689Z,53.90
2022-11-30T00:55:09.558Z,54.43
2022-11-30T00:57:36.106Z,49.90
2022-11-30T01:00:05.305Z,55.73
2022-11-30T01:02:31.888Z,52.97
2022-11-30T01:04:58.457Z,54.37
2022-11-30T01:07:25.029Z,53.63
2022-11-30T01:09:51.592Z,54.93
2022-11-30T01:12:18.145Z,56.67
2022-11-30T01:14:44.993Z,52.03
2022-11-30T01:17:11.810Z,55.47
2022-11-30T01:19:38.430Z,52.17
2022-11-30T01:22:05.052Z,56.70
2022-11-30T01:24:31.712Z,56.37
2022-11-30T01:26:58.260Z,51.60
2022-11-30T01:29:24.804Z,56.73
2022-11-30T01:31:51.390Z,58.17
2022-11-30T01:34:17.927Z,52.27
2022-11-30T01:36:44.596Z,52.47
2022-11-30T01:39:11.301Z,54.47
2022-11-30T01:41:37.924Z,54.73
2022-11-30T01:44:07.582Z,54.70
2022-11-30T01:46:38.560Z,56.37
2022-11-30T01:49:18.084Z,54.80
2022-11-30T01:51:46.918Z,51.50
2022-11-30T01:54:16.763Z,53.03
2022-11-30T01:56:55.499Z,55.33
2022-11-30T01:59:24.000Z,54.20
2022-11-30T02:01:52.093Z,52.20
2022-11-30T02:04:26.425Z,49.77
2022-11-30T02:06:53.031Z,55.07
2022-11-30T02:09:21.957Z,53.30
2022-11-30T02:11:49.701Z,55.23
2022-11-30T02:14:37.434Z,53.60
2022-11-30T02:17:47.907Z,54.03
2022-11-30T02:20:41.026Z,51.60
2022-11-30T02:23:41.663Z,53.83
2022-11-30T02:26:44.554Z,59.87
2022-11-30T02:29:23.233Z,49.87
2022-11-30T02:32:12.112Z,54.43
2022-11-30T02:34:42.105Z,52.67
2022-11-30T02:37:11.320Z,54.33
2022-11-30T02:39:37.949Z,50.80
2022-11-30T02:42:10.591Z,58.57
2022-11-30T02:44:37.383Z,50.93
2022-11-30T02:47:12.421Z,54.17
2022-11-30T02:49:59.166Z,52.17
2022-11-30T02:52:28.062Z,57.80
2022-11-30T02:55:06.652Z,57.13
2022-11-30T02:57:33.809Z,49.93
2022-11-30T03:00:03.999Z,56.17
2022-11-30T03:02:30.689Z,52.20
2022-11-30T03:04:57.268Z,54.00
2022-11-30T03:07:23.969Z,57.20
2022-11-30T03:09:50.701Z,54.77
2022-11-30T03:12:17.286Z,54.73
2022-11-30T03:14:44.121Z,51.60
2022-11-30T03:17:10.832Z,55.40
2022-11-30T03:19:37.377Z,52.80
2022-11-30T03:22:03.964Z,52.47
2022-11-30T03:24:30.546Z,50.87
2022-11-30T03:26:57.093Z,54.47
2022-11-30T03:29:23.636Z,50.77
2022-11-30T03:31:50.168Z,53.20
2022-11-30T03:34:16.731Z,52.93
2022-11-30T03:36:43.275Z,55.93
2022-11-30T03:39:09.846Z,52.10
2022-11-30T03:41:36.737Z,56.73
2022-11-30T03:44:03.415Z,52.63
2022-11-30T03:46:30.073Z,56.83
2022-11-30T03:48:56.722Z,55.43
2022-11-30T03:51:23.336Z,55.47
2022-11-30T03:53:49.875Z,54.00
2022-11-30T03:56:16.832Z,56.57
2022-11-30T03:58:43.695Z,57.27
2022-11-30T04:01:16.533Z,56.90
2022-11-30T04:03:43.724Z,57.57
2022-11-30T04:06:12.174Z,56.47
2022-11-30T04:08:40.146Z,54.57
2022-11-30T04:11:07.581Z,55.40
2022-11-30T04:13:36.389Z,55.07
2022-11-30T04:16:04.051Z,57.63
2022-11-30T04:18:31.914Z,56.80
2022-11-30T04:21:00.234Z,55.97
2022-11-30T04:23:30.907Z,56.83
2022-11-30T04:25:57.960Z,56.97
2022-11-30T04:28:24.739Z,53.10
2022-11-30T04:30:53.587Z,55.47
2022-11-30T04:33:20.181Z,53.87
2022-11-30T04:35:49.901Z,55.73
2022-11-30T04:38:16.502Z,54.60
2022-11-30T04:40:43.920Z,54.53
2022-11-30T04:43:11.605Z,56.00
2022-11-30T04:45:38.564Z,57.90
2022-11-30T04:48:06.306Z,60.77
2022-11-30T04:50:33.286Z,57.57
2022-11-30T04:53:00.022Z,57.40
2022-11-30T04:55:27.245Z,57.83
2022-11-30T04:57:54.039Z,56.43
2022-11-30T05:00:20.816Z,58.33
2022-11-30T05:02:52.551Z,56.33
2022-11-30T05:05:19.875Z,57.13
2022-11-30T05:07:50.578Z,60.10
2022-11-30T05:10:17.293Z,57.43
2022-11-30T05:12:43.861Z,57.57
2022-11-30T05:15:10.737Z,61.50
2022-11-30T05:17:37.328Z,54.17
2022-11-30T05:20:04.451Z,55.77
2022-11-30T05:22:31.031Z,60.27
2022-11-30T05:24:57.590Z,58.37
2022-11-30T05:27:24.121Z,55.03
2022-11-30T05:29:50.648Z,55.57
2022-11-30T05:32:17.181Z,55.30
2022-11-30T05:34:50.798Z,55.13
2022-11-30T05:37:18.799Z,56.53
2022-11-30T05:39:45.375Z,57.10
2022-11-30T05:42:11.918Z,56.70
2022-11-30T05:44:38.463Z,54.00
2022-11-30T05:47:05.145Z,56.70
2022-11-30T05:49:31.752Z,55.57
2022-11-30T05:51:58.317Z,54.60
2022-11-30T05:54:24.905Z,57.60
2022-11-30T05:56:54.682Z,58.77
2022-11-30T05:59:22.413Z,55.90
2022-11-30T06:01:49.254Z,57.07
2022-11-30T06:04:15.909Z,53.50
2022-11-30T06:06:42.520Z,54.70
2022-11-30T06:09:09.193Z,54.97
2022-11-30T06:11:35.781Z,58.17
2022-11-30T06:14:02.444Z,54.30
2022-11-30T06:16:29.117Z,54.97
2022-11-30T06:18:55.720Z,55.07
2022-11-30T06:21:24.699Z,52.00
2022-11-30T06:23:52.565Z,53.37
2022-11-30T06:26:19.171Z,52.40
2022-11-30T06:28:48.616Z,51.67
2022-11-30T06:31:16.052Z,53.70
2022-11-30T06:33:42.827Z,54.30
2022-11-30T06:36:09.820Z,55.10
2022-11-30T06:38:36.438Z,56.27
2022-11-30T06:41:08.023Z,53.97
2022-11-30T06:43:39.093Z,55.17
2022-11-30T06:46:06.998Z,53.80
2022-11-30T06:48:34.645Z,51.80
2022-11-30T06:51:01.868Z,50.47
2022-11-30T06:53:28.431Z,52.60
2022-11-30T06:55:55.056Z,52.33
2022-11-30T06:58:21.735Z,57.13
2022-11-30T07:00:48.595Z,52.93
2022-11-30T07:03:15.575Z,56.23
2022-11-30T07:05:44.842Z,52.37
2022-11-30T07:08:15.553Z,52.37
2022-11-30T07:10:44.655Z,51.90
2022-11-30T07:13:12.510Z,57.33
2022-11-30T07:15:40.260Z,55.07
2022-11-30T07:18:07.473Z,57.87
2022-11-30T07:20:34.095Z,54.93
2022-11-30T07:23:20.973Z,55.30
2022-11-30T07:26:06.452Z,54.17
2022-11-30T07:28:34.601Z,54.80
2022-11-30T07:31:01.173Z,53.13
2022-11-30T07:33:27.732Z,56.13
2022-11-30T07:35:54.618Z,56.77
2022-11-30T07:38:21.171Z,55.40
2022-11-30T07:40:47.743Z,52.57
2022-11-30T07:43:14.332Z,55.40
2022-11-30T07:45:40.962Z,50.23
2022-11-30T07:48:09.425Z,53.97
2022-11-30T07:50:35.961Z,56.03
2022-11-30T07:53:02.518Z,57.30
2022-11-30T07:55:29.096Z,57.50
2022-11-30T07:57:55.630Z,51.47
2022-11-30T08:00:22.157Z,52.13
2022-11-30T08:02:50.697Z,53.97
2022-11-30T08:05:17.449Z,46.83
2022-11-30T08:07:45.776Z,52.53
2022-11-30T08:10:12.367Z,51.93
2022-11-30T08:12:39.021Z,50.57
2022-11-30T08:15:27.418Z,54.53
2022-11-30T08:17:55.009Z,48.83
2022-11-30T08:20:22.377Z,51.67
2022-11-30T08:22:49.616Z,47.57
2022-11-30T08:25:16.244Z,53.70
2022-11-30T08:27:42.849Z,54.97
2022-11-30T08:30:09.774Z,51.80
2022-11-30T08:32:36.341Z,49.77
2022-11-30T08:35:02.977Z,48.03
2022-11-30T08:37:29.510Z,49.13
2022-11-30T08:39:56.070Z,48.17
2022-11-30T08:42:22.604Z,51.27
2022-11-30T08:44:49.161Z,50.37
2022-11-30T08:47:15.802Z,55.27
2022-11-30T08:49:42.362Z,55.03
2022-11-30T08:52:16.903Z,51.83
2022-11-30T08:54:46.174Z,49.77
2022-11-30T08:57:17.633Z,48.67
2022-11-30T08:59:44.792Z,50.97
2022-11-30T09:02:13.969Z,51.53
2022-11-30T09:04:40.740Z,52.83
2022-11-30T09:07:07.528Z,48.07
2022-11-30T09:09:34.263Z,48.70
2022-11-30T09:12:00.991Z,51.43
2022-11-30T09:14:27.855Z,47.20
2022-11-30T09:16:55.092Z,50.50
2022-11-30T09:19:22.044Z,51.33
2022-11-30T09:21:51.983Z,51.80
2022-11-30T09:24:19.676Z,48.37
2022-11-30T09:26:46.526Z,51.03
2022-11-30T09:29:13.236Z,51.70
2022-11-30T09:31:39.788Z,51.40
2022-11-30T09:34:06.387Z,49.90
2022-11-30T09:36:33.974Z,51.07
2022-11-30T09:39:00.792Z,51.93
2022-11-30T09:42:09.776Z,49.40
2022-11-30T09:45:11.295Z,50.53
2022-11-30T09:48:19.258Z,47.50
2022-11-30T09:50:47.337Z,48.17
2022-11-30T09:53:30.752Z,50.37
2022-11-30T09:56:00.026Z,50.47
2022-11-30T09:58:49.321Z,48.93
2022-11-30T10:01:19.244Z,50.10
2022-11-30T10:03:46.823Z,50.70
2022-11-30T10:06:26.219Z,51.33
2022-11-30T10:09:06.614Z,49.00
2022-11-30T10:11:47.398Z,47.47
2022-11-30T10:14:32.309Z,52.10
2022-11-30T10:17:22.839Z,53.13
2022-11-30T10:20:24.023Z,49.20
2022-11-30T10:23:14.070Z,52.97
2022-11-30T10:25:52.618Z,49.40
2022-11-30T10:28:47.608Z,51.77
2022-11-30T10:31:16.228Z,49.33
2022-11-30T10:33:51.632Z,51.77
2022-11-30T10:36:34.620Z,49.60
2022-11-30T10:39:04.712Z,52.03
2022-11-30T10:41:39.465Z,54.43
2022-11-30T10:44:23.127Z,53.77
2022-11-30T10:46:57.780Z,51.17
2022-11-30T10:49:27.729Z,51.40
2022-11-30T10:51:59.952Z,47.80
2022-11-30T10:54:26.498Z,49.17
2022-11-30T10:56:53.086Z,49.40
2022-11-30T10:59:44.069Z,47.03
2022-11-30T11:02:34.376Z,49.10
2022-11-30T11:05:29.234Z,46.97
2022-11-30T11:08:06.855Z,48.90
2022-11-30T11:10:45.012Z,49.87
2022-11-30T11:13:17.503Z,47.80
2022-11-30T11:15:58.654Z,47.70
2022-11-30T11:18:30.802Z,51.53
2022-11-30T11:21:08.202Z,50.23
2022-11-30T11:23:37.909Z,50.47
2022-11-30T11:26:06.335Z,48.70
2022-11-30T11:28:35.848Z,50.27
2022-11-30T11:31:16.747Z,49.67
2022-11-30T11:33:54.061Z,50.57
2022-11-30T11:36:29.672Z,53.57
2022-11-30T11:38:57.213Z,49.53
2022-11-30T11:41:31.415Z,49.13
2022-11-30T11:44:09.993Z,47.00
2022-11-30T11:47:03.560Z,47.67
2022-11-30T11:49:34.357Z,52.83
2022-11-30T11:52:11.185Z,54.07
2022-11-30T11:54:51.533Z,53.60
2022-11-30T11:57:21.315Z,54.90
2022-11-30T11:59:54.693Z,54.33
2022-11-30T12:02:49.263Z,49.67
2022-11-30T12:05:24.324Z,53.57
2022-11-30T12:08:15.584Z,52.80
2022-11-30T12:11:09.912Z,55.67
2022-11-30T12:13:43.149Z,51.87
2022-11-30T12:16:15.932Z,56.17
2022-11-30T12:19:20.281Z,56.00
2022-11-30T12:22:12.267Z,55.33
2022-11-30T12:24:47.216Z,54.57
2022-11-30T12:27:33.412Z,57.13
2022-11-30T12:30:13.473Z,55.70
2022-11-30T12:33:05.538Z,58.23
2022-11-30T12:35:51.004Z,58.30
2022-11-30T12:38:31.926Z,59.00
2022-11-30T12:41:22.844Z,56.67
2022-11-30T12:44:20.958Z,59.17
2022-11-30T12:47:18.389Z,58.80
2022-11-30T12:50:11.571Z,59.03
2022-11-30T12:52:54.005Z,59.70
2022-11-30T12:55:45.823Z,63.50
2022-11-30T12:58:30.822Z,64.13
2022-11-30T13:01:12.103Z,63.87
2022-11-30T13:03:45.299Z,63.13
2022-11-30T13:06:21.053Z,62.53
2022-11-30T13:09:00.395Z,66.67
2022-11-30T13:11:36.632Z,63.10
2022-11-30T13:14:07.611Z,63.67
2022-11-30T13:16:34.745Z,67.57
2022-11-30T13:19:29.384Z,63.10
2022-11-30T13:22:03.776Z,59.83
2022-11-30T13:24:39.045Z,63.20
2022-11-30T13:27:31.473Z,61.20
2022-11-30T13:30:17.047Z,61.93
2022-11-30T13:32:59.374Z,64.23
2022-11-30T13:35:29.304Z,63.17
2022-11-30T13:38:34.655Z,66.50
2022-11-30T13:40:59.688Z,64.23
2022-11-30T13:43:34.281Z,57.00
2022-11-30T13:46:28.562Z,65.63
2022-11-30T13:49:21.118Z,63.93
2022-11-30T13:52:01.481Z,61.30
2022-11-30T13:54:50.311Z,58.77
2022-11-30T13:57:29.545Z,63.03
2022-11-30T13:59:57.072Z,60.07
2022-11-30T14:02:41.757Z,63.60
2022-11-30T14:05:17.446Z,66.00
2022-11-30T14:07:46.166Z,63.33
2022-11-30T14:10:28.167Z,70.63
2022-11-30T14:13:02.083Z,70.50
2022-11-30T14:15:40.650Z,73.60
2022-11-30T14:18:10.078Z,63.60
2022-11-30T14:20:51.613Z,66.23
2022-11-30T14:23:49.646Z,66.33
2022-11-30T14:26:23.358Z,68.23
2022-11-30T14:29:00.793Z,70.00
2022-11-30T14:31:31.813Z,71.67
2022-11-30T14:34:11.764Z,70.80
2022-11-30T14:36:43.511Z,72.83
2022-11-30T14:39:26.600Z,74.97
2022-11-30T14:41:53.967Z,77.27
2022-11-30T14:44:20.550Z,70.20
2022-11-30T14:46:47.140Z,74.03
2022-11-30T14:49:24.114Z,74.73
2022-11-30T14:52:13.202Z,81.23
2022-11-30T14:55:12.244Z,73.67
2022-11-30T14:58:07.059Z,80.87
2022-11-30T15:00:39.678Z,79.57
2022-11-30T15:03:18.099Z,82.53
2022-11-30T15:05:44.771Z,87.90
2022-11-30T15:08:16.709Z,76.83
2022-11-30T15:10:43.618Z,82.13
2022-11-30T15:13:15.362Z,86.33
2022-11-30T15:15:55.850Z,86.07
2022-11-30T15:18:25.075Z,87.07
2022-11-30T15:20:57.517Z,81.53
2022-11-30T15:23:24.273Z,84.70
2022-11-30T15:26:03.895Z,80.27
2022-11-30T15:28:41.262Z,91.23
2022-11-30T15:31:13.209Z,80.17
2022-11-30T15:33:50.220Z,83.13
2022-11-30T15:36:34.018Z,82.90
2022-11-30T15:39:04.257Z,81.00
2022-11-30T15:41:33.038Z,77.27
2022-11-30T15:43:59.661Z,81.90
2022-11-30T15:46:53.260Z,77.77
2022-11-30T15:49:25.795Z,71.23
2022-11-30T15:52:10.953Z,70.30
2022-11-30T15:54:58.708Z,81.43
2022-11-30T15:57:27.407Z,71.63
2022-11-30T16:00:18.658Z,74.43
2022-11-30T16:02:45.348Z,82.90
2022-11-30T16:05:14.562Z,78.30
2022-11-30T16:07:52.577Z,66.97
2022-11-30T16:10:23.538Z,71.67
2022-11-30T16:12:51.678Z,80.90
2022-11-30T16:15:29.394Z,78.20
2022-11-30T16:18:15.845Z,71.93
2022-11-30T16:20:44.357Z,83.97
2022-11-30T16:23:15.022Z,71.33
2022-11-30T16:25:43.468Z,82.83
2022-11-30T16:28:11.764Z,81.33
2022-11-30T16:30:39.278Z,82.13
2022-11-30T16:33:06.058Z,79.37
2022-11-30T16:35:39.302Z,77.50
2022-11-30T16:38:06.587Z,78.13
2022-11-30T16:40:38.420Z,87.83
2022-11-30T16:43:05.735Z,73.73
2022-11-30T16:45:36.370Z,77.23
2022-11-30T16:48:03.185Z,75.77
2022-11-30T16:50:31.370Z,82.33
2022-11-30T16:52:58.279Z,75.07
2022-11-30T16:55:28.951Z,76.70
2022-11-30T16:57:55.659Z,75.77
2022-11-30T17:00:22.751Z,71.37
2022-11-30T17:02:56.803Z,65.13
2022-11-30T17:05:23.877Z,64.70
2022-11-30T17:07:50.629Z,65.53
2022-11-30T17:10:17.715Z,65.23
2022-11-30T17:12:44.389Z,71.03
2022-11-30T17:15:20.922Z,70.40
2022-11-30T17:17:48.101Z,71.43
2022-11-30T17:20:16.826Z,71.07
2022-11-30T17:22:44.611Z,69.90
2022-11-30T17:25:20.659Z,70.07
2022-11-30T17:27:48.551Z,77.13
2022-11-30T17:30:18.006Z,71.20
2022-11-30T17:32:44.663Z,71.40
2022-11-30T17:35:11.884Z,73.43
2022-11-30T17:37:38.756Z,73.90
2022-11-30T17:40:06.940Z,76.27
2022-11-30T17:42:33.689Z,78.13
2022-11-30T17:45:00.273Z,73.20
2022-11-30T17:47:26.822Z,75.17
2022-11-30T17:49:53.432Z,75.50
2022-11-30T17:52:20.018Z,72.07
2022-11-30T17:54:46.927Z,79.10
2022-11-30T17:57:13.825Z,73.87
2022-11-30T17:59:40.539Z,83.83
2022-11-30T18:02:09.242Z,82.47
2022-11-30T18:04:35.940Z,68.33
2022-11-30T18:07:02.571Z,77.10
2022-11-30T18:09:29.168Z,76.47
2022-11-30T18:11:55.726Z,81.17
2022-11-30T18:14:22.357Z,73.40
2022-11-30T18:16:49.001Z,73.77
2022-11-30T18:19:15.613Z,73.70
2022-11-30T18:21:46.168Z,71.87
2022-11-30T18:24:12.798Z,72.47
2022-11-30T18:26:40.124Z,71.60
2022-11-30T18:29:07.246Z,71.07
2022-11-30T18:31:34.121Z,71.20
2022-11-30T18:34:03.098Z,75.53
2022-11-30T18:36:30.792Z,67.33
2022-11-30T18:38:57.746Z,77.10
2022-11-30T18:41:26.373Z,66.53
2022-11-30T18:43:53.577Z,69.10
2022-11-30T18:46:20.317Z,62.43
2022-11-30T18:48:50.304Z,69.07
2022-11-30T18:51:19.805Z,69.07
2022-11-30T18:53:46.959Z,66.27
2022-11-30T18:56:19.106Z,63.97
2022-11-30T18:58:46.939Z,70.93
2022-11-30T19:01:16.370Z,73.27
2022-11-30T19:03:43.526Z,58.33
2022-11-30T19:06:11.840Z,59.27
2022-11-30T19:08:39.931Z,63.30
2022-11-30T19:11:08.825Z,68.45
2022-11-30T19:13:36.101Z,64.97
2022-11-30T19:16:04.573Z,67.70
2022-11-30T19:18:31.710Z,66.80
2022-11-30T19:20:58.345Z,62.47
2022-11-30T19:23:25.188Z,63.17
2022-11-30T19:25:52.104Z,66.67
2022-11-30T19:28:19.779Z,61.70
2022-11-30T19:30:46.419Z,64.87
2022-11-30T19:33:14.235Z,61.10
2022-11-30T19:35:40.825Z,68.87
2022-11-30T19:38:07.442Z,68.07
2022-11-30T19:40:34.082Z,70.00
2022-11-30T19:43:00.721Z,69.13
2022-11-30T19:45:30.246Z,65.37
2022-11-30T19:47:56.802Z,60.73
2022-11-30T19:50:24.355Z,73.03
2022-11-30T19:52:50.931Z,68.03
2022-11-30T19:55:17.553Z,68.00
2022-11-30T19:57:44.736Z,71.33
2022-11-30T20:00:12.390Z,61.63
2022-11-30T20:02:38.974Z,63.90
2022-11-30T20:05:05.907Z,65.23
2022-11-30T20:07:32.534Z,72.13
2022-11-30T20:09:59.109Z,74.63
2022-11-30T20:12:25.676Z,65.37
2022-11-30T20:14:52.367Z,70.10
2022-11-30T20:17:18.913Z,70.57
2022-11-30T20:19:45.477Z,67.93
2022-11-30T20:22:12.025Z,68.63
2022-11-30T20:24:38.568Z,67.70
2022-11-30T20:27:05.176Z,68.90
2022-11-30T20:29:31.742Z,70.13
2022-11-30T20:31:58.361Z,63.73
2022-11-30T20:34:28.558Z,68.70
2022-11-30T20:36:57.705Z,63.10
2022-11-30T20:39:24.244Z,65.83
2022-11-30T20:41:50.851Z,69.40
2022-11-30T20:44:17.400Z,66.07
2022-11-30T20:46:44.114Z,63.53
2022-11-30T20:49:18.390Z,74.40
2022-11-30T20:51:46.750Z,71.23
2022-11-30T20:54:14.148Z,64.67
2022-11-30T20:56:41.390Z,62.57
2022-11-30T20:59:13.214Z,70.53
2022-11-30T21:01:45.878Z,69.23
2022-11-30T21:04:12.983Z,69.47
2022-11-30T21:06:40.492Z,73.87
2022-11-30T21:09:07.046Z,69.20
2022-11-30T21:11:34.002Z,64.70
2022-11-30T21:14:00.798Z,65.90
2022-11-30T21:16:29.651Z,67.20
2022-11-30T21:18:58.748Z,69.83
2022-11-30T21:21:28.339Z,65.90
2022-11-30T21:23:54.954Z,73.03
2022-11-30T21:26:33.022Z,66.00
2022-11-30T21:29:21.399Z,70.73
2022-11-30T21:31:48.026Z,71.93
2022-11-30T21:34:15.074Z,70.50
2022-11-30T21:36:41.789Z,70.30
2022-11-30T21:39:09.931Z,69.67
2022-11-30T21:41:39.260Z,71.90
2022-11-30T21:44:09.527Z,69.97
2022-11-30T21:46:37.718Z,64.93
2022-11-30T21:49:09.962Z,65.33
2022-11-30T21:51:36.930Z,63.77
2022-11-30T21:54:06.302Z,71.27
2022-11-30T21:56:36.501Z,66.07
2022-11-30T21:59:08.796Z,69.80
2022-11-30T22:01:38.428Z,64.30
2022-11-30T22:04:07.089Z,62.10
2022-11-30T22:06:35.631Z,62.80
2022-11-30T22:09:08.779Z,58.37
2022-11-30T22:11:41.767Z,60.07
2022-11-30T22:14:12.222Z,63.70
2022-11-30T22:16:39.470Z,66.70
2022-11-30T22:19:07.437Z,65.73
2022-11-30T22:21:35.173Z,63.10
2022-11-30T22:24:07.591Z,71.80
2022-11-30T22:26:39.272Z,70.70
2022-11-30T22:29:13.217Z,70.27
2022-11-30T22:31:42.340Z,68.87
2022-11-30T22:34:09.920Z,72.83
2022-11-30T22:36:38.718Z,66.30
2022-11-30T22:39:11.829Z,66.47
2022-11-30T22:41:40.117Z,69.27
2022-11-30T22:44:06.751Z,61.53
2022-11-30T22:46:35.064Z,63.90
2022-11-30T22:49:04.318Z,66.70
2022-11-30T22:51:32.786Z,63.70
2022-11-30T22:53:59.759Z,64.77
2022-11-30T22:56:35.436Z,66.83
2022-11-30T22:59:02.724Z,62.43
2022-11-30T23:01:34.711Z,59.70
2022-11-30T23:04:04.464Z,65.63
2022-11-30T23:06:31.708Z,61.67
2022-11-30T23:08:59.177Z,62.37
2022-11-30T23:11:26.691Z,64.67
2022-11-30T23:13:53.329Z,64.33
2022-11-30T23:16:21.067Z,64.53
2022-11-30T23:18:50.570Z,61.60
2022-11-30T23:21:20.153Z,60.63
2022-11-30T23:23:47.593Z,66.23
2022-11-30T23:26:18.909Z,65.53
2022-11-30T23:28:48.381Z,60.90
2022-11-30T23:31:34.128Z,63.10
2022-11-30T23:34:04.843Z,66.00
2022-11-30T23:36:32.406Z,65.90
2022-11-30T23:39:01.590Z,61.10
2022-11-30T23:41:28.538Z,58.23
2022-11-30T23:43:55.292Z,68.33
2022-11-30T23:46:22.453Z,60.93
2022-11-30T23:48:49.476Z,59.40
2022-11-30T23:51:16.057Z,58.97
2022-11-30T23:53:43.612Z,60.97
2022-11-30T23:56:14.238Z,60.73
2022-11-30T23:58:41.312Z,58.67
